sensor_id;sensor_type;location;lat;lon;timestamp;P1;durP1;ratioP1;P2;durP2;ratioP2
35056;SDS011;21241;51.828;19.574;2023-05-01T00:01:57;10.70;;;9.60;;
35056;SDS011;21241;51.828;19.574;2023-05-01T00:04:24;10.90;;;9.70;;
35056;SDS011;21241;51.828;19.574;2023-05-01T00:06:53;15.30;;;13.40;;
35056;SDS011;21241;51.828;19.574;2023-05-01T00:09:21;11.10;;;9.80;;
35056;SDS011;21241;51.828;19.574;2023-05-01T00:11:48;12.00;;;10.00;;
35056;SDS011;21241;51.828;19.574;2023-05-01T00:14:16;14.20;;;12.70;;
35056;SDS011;21241;51.828;19.574;2023-05-01T00:16:44;13.70;;;12.30;;
35056;SDS011;21241;51.828;19.574;2023-05-01T00:19:13;11.00;;;9.90;;
35056;SDS011;21241;51.828;19.574;2023-05-01T00:21:45;10.40;;;9.30;;
35056;SDS011;21241;51.828;19.574;2023-05-01T00:24:14;11.10;;;9.50;;
35056;SDS011;21241;51.828;19.574;2023-05-01T00:26:43;10.10;;;9.10;;
35056;SDS011;21241;51.828;19.574;2023-05-01T00:29:11;11.40;;;10.30;;
35056;SDS011;21241;51.828;19.574;2023-05-01T00:31:39;11.60;;;10.50;;
35056;SDS011;21241;51.828;19.574;2023-05-01T00:34:09;12.00;;;10.70;;
35056;SDS011;21241;51.828;19.574;2023-05-01T00:36:38;11.10;;;9.80;;
35056;SDS011;21241;51.828;19.574;2023-05-01T00:39:06;11.90;;;9.30;;
35056;SDS011;21241;51.828;19.574;2023-05-01T00:41:36;12.70;;;11.00;;
35056;SDS011;21241;51.828;19.574;2023-05-01T00:44:04;11.50;;;10.30;;
35056;SDS011;21241;51.828;19.574;2023-05-01T00:46:32;11.50;;;10.30;;
35056;SDS011;21241;51.828;19.574;2023-05-01T00:49:01;10.90;;;9.90;;
35056;SDS011;21241;51.828;19.574;2023-05-01T00:51:29;11.50;;;10.50;;
35056;SDS011;21241;51.828;19.574;2023-05-01T00:53:58;11.80;;;10.40;;
35056;SDS011;21241;51.828;19.574;2023-05-01T00:56:26;12.70;;;11.10;;
35056;SDS011;21241;51.828;19.574;2023-05-01T00:58:54;12.30;;;11.00;;
35056;SDS011;21241;51.828;19.574;2023-05-01T01:01:22;11.20;;;10.20;;
35056;SDS011;21241;51.828;19.574;2023-05-01T01:03:50;11.00;;;10.00;;
35056;SDS011;21241;51.828;19.574;2023-05-01T01:09:21;11.70;;;10.40;;
35056;SDS011;21241;51.828;19.574;2023-05-01T01:12:18;11.80;;;10.50;;
35056;SDS011;21241;51.828;19.574;2023-05-01T01:20:18;13.60;;;12.40;;
35056;SDS011;21241;51.828;19.574;2023-05-01T01:23:21;14.70;;;13.30;;
35056;SDS011;21241;51.828;19.574;2023-05-01T01:28:55;12.70;;;11.50;;
35056;SDS011;21241;51.828;19.574;2023-05-01T01:31:39;13.50;;;12.10;;
35056;SDS011;21241;51.828;19.574;2023-05-01T01:34:24;13.60;;;12.20;;
35056;SDS011;21241;51.828;19.574;2023-05-01T01:39:51;13.50;;;12.20;;
35056;SDS011;21241;51.828;19.574;2023-05-01T01:42:23;14.90;;;13.30;;
35056;SDS011;21241;51.828;19.574;2023-05-01T01:44:54;16.00;;;13.90;;
35056;SDS011;21241;51.828;19.574;2023-05-01T01:47:26;15.90;;;14.40;;
35056;SDS011;21241;51.828;19.574;2023-05-01T01:50:02;15.10;;;13.60;;
35056;SDS011;21241;51.828;19.574;2023-05-01T01:52:31;16.20;;;14.30;;
35056;SDS011;21241;51.828;19.574;2023-05-01T01:55:10;16.80;;;15.10;;
35056;SDS011;21241;51.828;19.574;2023-05-01T01:57:39;16.10;;;14.50;;
35056;SDS011;21241;51.828;19.574;2023-05-01T02:00:11;15.60;;;13.80;;
35056;SDS011;21241;51.828;19.574;2023-05-01T02:02:40;15.40;;;13.80;;
35056;SDS011;21241;51.828;19.574;2023-05-01T02:05:10;15.70;;;14.30;;
35056;SDS011;21241;51.828;19.574;2023-05-01T02:07:40;15.60;;;13.90;;
35056;SDS011;21241;51.828;19.574;2023-05-01T02:10:08;16.30;;;14.50;;
35056;SDS011;21241;51.828;19.574;2023-05-01T02:12:38;15.80;;;14.30;;
35056;SDS011;21241;51.828;19.574;2023-05-01T02:15:07;16.30;;;14.60;;
35056;SDS011;21241;51.828;19.574;2023-05-01T02:17:37;16.20;;;14.50;;
35056;SDS011;21241;51.828;19.574;2023-05-01T02:20:07;16.60;;;14.90;;
35056;SDS011;21241;51.828;19.574;2023-05-01T02:22:40;15.80;;;14.20;;
35056;SDS011;21241;51.828;19.574;2023-05-01T02:25:09;15.70;;;14.20;;
35056;SDS011;21241;51.828;19.574;2023-05-01T02:27:39;16.30;;;13.90;;
35056;SDS011;21241;51.828;19.574;2023-05-01T02:30:11;15.20;;;13.70;;
35056;SDS011;21241;51.828;19.574;2023-05-01T02:32:39;15.70;;;14.20;;
35056;SDS011;21241;51.828;19.574;2023-05-01T02:35:07;15.90;;;14.00;;
35056;SDS011;21241;51.828;19.574;2023-05-01T02:37:36;15.70;;;14.10;;
35056;SDS011;21241;51.828;19.574;2023-05-01T02:40:05;15.60;;;14.00;;
35056;SDS011;21241;51.828;19.574;2023-05-01T02:42:35;15.40;;;13.90;;
35056;SDS011;21241;51.828;19.574;2023-05-01T02:45:07;15.80;;;14.40;;
35056;SDS011;21241;51.828;19.574;2023-05-01T02:47:37;15.60;;;14.00;;
35056;SDS011;21241;51.828;19.574;2023-05-01T02:50:06;17.30;;;15.60;;
35056;SDS011;21241;51.828;19.574;2023-05-01T02:52:35;18.50;;;16.60;;
35056;SDS011;21241;51.828;19.574;2023-05-01T02:55:23;15.70;;;14.20;;
35056;SDS011;21241;51.828;19.574;2023-05-01T02:57:51;17.70;;;15.90;;
35056;SDS011;21241;51.828;19.574;2023-05-01T03:00:19;19.80;;;15.60;;
35056;SDS011;21241;51.828;19.574;2023-05-01T03:02:47;16.30;;;14.20;;
35056;SDS011;21241;51.828;19.574;2023-05-01T03:05:15;16.80;;;15.20;;
35056;SDS011;21241;51.828;19.574;2023-05-01T03:07:43;18.20;;;16.40;;
35056;SDS011;21241;51.828;19.574;2023-05-01T03:10:11;17.40;;;15.60;;
35056;SDS011;21241;51.828;19.574;2023-05-01T03:12:39;17.10;;;15.40;;
35056;SDS011;21241;51.828;19.574;2023-05-01T03:15:07;16.40;;;14.60;;
35056;SDS011;21241;51.828;19.574;2023-05-01T03:17:35;17.40;;;15.70;;
35056;SDS011;21241;51.828;19.574;2023-05-01T03:20:03;20.40;;;16.70;;
35056;SDS011;21241;51.828;19.574;2023-05-01T03:22:32;19.70;;;17.60;;
35056;SDS011;21241;51.828;19.574;2023-05-01T03:25:00;20.90;;;18.10;;
35056;SDS011;21241;51.828;19.574;2023-05-01T03:27:28;17.20;;;15.40;;
35056;SDS011;21241;51.828;19.574;2023-05-01T03:29:57;16.80;;;15.20;;
35056;SDS011;21241;51.828;19.574;2023-05-01T03:32:25;17.70;;;15.70;;
35056;SDS011;21241;51.828;19.574;2023-05-01T03:34:56;18.00;;;16.10;;
35056;SDS011;21241;51.828;19.574;2023-05-01T03:37:24;16.40;;;14.80;;
35056;SDS011;21241;51.828;19.574;2023-05-01T03:39:52;18.00;;;16.10;;
35056;SDS011;21241;51.828;19.574;2023-05-01T03:42:39;16.90;;;15.10;;
35056;SDS011;21241;51.828;19.574;2023-05-01T03:45:11;18.90;;;17.20;;
35056;SDS011;21241;51.828;19.574;2023-05-01T03:47:39;18.20;;;16.30;;
35056;SDS011;21241;51.828;19.574;2023-05-01T03:50:07;18.70;;;16.80;;
35056;SDS011;21241;51.828;19.574;2023-05-01T03:52:36;17.30;;;15.60;;
35056;SDS011;21241;51.828;19.574;2023-05-01T03:55:04;17.00;;;15.30;;
35056;SDS011;21241;51.828;19.574;2023-05-01T03:57:37;15.90;;;14.30;;
35056;SDS011;21241;51.828;19.574;2023-05-01T04:00:06;15.90;;;14.20;;
35056;SDS011;21241;51.828;19.574;2023-05-01T04:02:41;15.90;;;14.40;;
35056;SDS011;21241;51.828;19.574;2023-05-01T04:05:12;16.10;;;14.40;;
35056;SDS011;21241;51.828;19.574;2023-05-01T04:07:44;15.50;;;14.00;;
35056;SDS011;21241;51.828;19.574;2023-05-01T04:10:12;14.60;;;13.20;;
35056;SDS011;21241;51.828;19.574;2023-05-01T04:12:46;15.00;;;13.10;;
35056;SDS011;21241;51.828;19.574;2023-05-01T04:15:14;14.40;;;13.00;;
35056;SDS011;21241;51.828;19.574;2023-05-01T04:17:42;15.80;;;13.90;;
35056;SDS011;21241;51.828;19.574;2023-05-01T04:20:10;17.00;;;15.30;;
35056;SDS011;21241;51.828;19.574;2023-05-01T04:22:39;16.00;;;14.40;;
35056;SDS011;21241;51.828;19.574;2023-05-01T04:25:07;15.00;;;13.60;;
35056;SDS011;21241;51.828;19.574;2023-05-01T04:27:35;15.30;;;13.70;;
35056;SDS011;21241;51.828;19.574;2023-05-01T04:30:03;13.00;;;11.80;;
35056;SDS011;21241;51.828;19.574;2023-05-01T04:32:32;13.90;;;12.40;;
35056;SDS011;21241;51.828;19.574;2023-05-01T04:34:59;16.10;;;12.50;;
35056;SDS011;21241;51.828;19.574;2023-05-01T04:37:27;12.70;;;11.50;;
35056;SDS011;21241;51.828;19.574;2023-05-01T04:39:55;13.50;;;12.10;;
35056;SDS011;21241;51.828;19.574;2023-05-01T04:42:28;13.20;;;11.90;;
35056;SDS011;21241;51.828;19.574;2023-05-01T04:44:59;13.00;;;11.70;;
35056;SDS011;21241;51.828;19.574;2023-05-01T04:47:33;13.70;;;12.30;;
35056;SDS011;21241;51.828;19.574;2023-05-01T04:50:01;13.10;;;11.80;;
35056;SDS011;21241;51.828;19.574;2023-05-01T04:52:30;13.00;;;11.00;;
35056;SDS011;21241;51.828;19.574;2023-05-01T04:54:59;13.50;;;11.90;;
35056;SDS011;21241;51.828;19.574;2023-05-01T04:57:29;12.90;;;11.50;;
35056;SDS011;21241;51.828;19.574;2023-05-01T04:59:57;12.10;;;10.90;;
35056;SDS011;21241;51.828;19.574;2023-05-01T05:02:25;12.80;;;11.60;;
35056;SDS011;21241;51.828;19.574;2023-05-01T05:04:53;12.20;;;10.90;;
35056;SDS011;21241;51.828;19.574;2023-05-01T05:07:22;15.40;;;11.20;;
35056;SDS011;21241;51.828;19.574;2023-05-01T05:10:22;11.20;;;10.00;;
35056;SDS011;21241;51.828;19.574;2023-05-01T05:13:07;11.50;;;10.30;;
35056;SDS011;21241;51.828;19.574;2023-05-01T05:15:37;12.60;;;11.40;;
35056;SDS011;21241;51.828;19.574;2023-05-01T05:18:06;13.10;;;11.00;;
35056;SDS011;21241;51.828;19.574;2023-05-01T05:20:36;11.10;;;10.00;;
35056;SDS011;21241;51.828;19.574;2023-05-01T05:23:05;11.40;;;10.20;;
35056;SDS011;21241;51.828;19.574;2023-05-01T05:25:35;11.90;;;10.50;;
35056;SDS011;21241;51.828;19.574;2023-05-01T05:28:02;13.20;;;11.80;;
35056;SDS011;21241;51.828;19.574;2023-05-01T05:30:30;12.40;;;11.10;;
35056;SDS011;21241;51.828;19.574;2023-05-01T05:32:58;13.10;;;10.30;;
35056;SDS011;21241;51.828;19.574;2023-05-01T05:35:26;11.20;;;10.00;;
35056;SDS011;21241;51.828;19.574;2023-05-01T05:37:54;11.30;;;9.60;;
35056;SDS011;21241;51.828;19.574;2023-05-01T05:40:23;11.30;;;10.20;;
35056;SDS011;21241;51.828;19.574;2023-05-01T05:42:55;11.30;;;10.20;;
35056;SDS011;21241;51.828;19.574;2023-05-01T05:45:24;11.40;;;10.30;;
35056;SDS011;21241;51.828;19.574;2023-05-01T05:47:52;12.40;;;10.20;;
35056;SDS011;21241;51.828;19.574;2023-05-01T05:50:20;12.80;;;9.60;;
35056;SDS011;21241;51.828;19.574;2023-05-01T05:52:47;11.00;;;10.00;;
35056;SDS011;21241;51.828;19.574;2023-05-01T05:55:15;13.40;;;10.60;;
35056;SDS011;21241;51.828;19.574;2023-05-01T05:57:51;11.30;;;10.10;;
35056;SDS011;21241;51.828;19.574;2023-05-01T06:00:19;11.30;;;10.10;;
35056;SDS011;21241;51.828;19.574;2023-05-01T06:02:47;11.20;;;10.10;;
35056;SDS011;21241;51.828;19.574;2023-05-01T06:05:15;11.30;;;9.80;;
35056;SDS011;21241;51.828;19.574;2023-05-01T06:07:43;11.10;;;10.00;;
35056;SDS011;21241;51.828;19.574;2023-05-01T06:10:11;12.00;;;10.80;;
35056;SDS011;21241;51.828;19.574;2023-05-01T06:12:39;11.30;;;10.20;;
35056;SDS011;21241;51.828;19.574;2023-05-01T06:15:18;11.70;;;10.60;;
35056;SDS011;21241;51.828;19.574;2023-05-01T06:17:52;11.60;;;10.50;;
35056;SDS011;21241;51.828;19.574;2023-05-01T06:20:20;12.50;;;11.20;;
35056;SDS011;21241;51.828;19.574;2023-05-01T06:22:49;11.40;;;10.40;;
35056;SDS011;21241;51.828;19.574;2023-05-01T06:25:29;10.90;;;9.30;;
35056;SDS011;21241;51.828;19.574;2023-05-01T06:27:57;10.20;;;9.30;;
35056;SDS011;21241;51.828;19.574;2023-05-01T06:30:25;10.70;;;9.60;;
35056;SDS011;21241;51.828;19.574;2023-05-01T06:32:53;11.00;;;9.80;;
35056;SDS011;21241;51.828;19.574;2023-05-01T06:35:21;12.50;;;10.00;;
35056;SDS011;21241;51.828;19.574;2023-05-01T06:37:49;10.20;;;9.20;;
35056;SDS011;21241;51.828;19.574;2023-05-01T06:40:17;9.60;;;8.20;;
35056;SDS011;21241;51.828;19.574;2023-05-01T06:42:45;8.90;;;8.00;;
35056;SDS011;21241;51.828;19.574;2023-05-01T06:45:13;10.90;;;8.00;;
35056;SDS011;21241;51.828;19.574;2023-05-01T06:47:40;8.60;;;7.80;;
35056;SDS011;21241;51.828;19.574;2023-05-01T06:50:08;7.80;;;7.10;;
35056;SDS011;21241;51.828;19.574;2023-05-01T06:52:37;9.30;;;7.50;;
35056;SDS011;21241;51.828;19.574;2023-05-01T06:55:06;7.40;;;6.70;;
35056;SDS011;21241;51.828;19.574;2023-05-01T06:57:35;8.80;;;8.00;;
35056;SDS011;21241;51.828;19.574;2023-05-01T07:00:03;8.60;;;7.80;;
35056;SDS011;21241;51.828;19.574;2023-05-01T07:02:31;7.60;;;6.50;;
35056;SDS011;21241;51.828;19.574;2023-05-01T07:04:59;6.80;;;6.10;;
35056;SDS011;21241;51.828;19.574;2023-05-01T07:07:27;8.20;;;6.40;;
35056;SDS011;21241;51.828;19.574;2023-05-01T07:09:55;8.30;;;6.40;;
35056;SDS011;21241;51.828;19.574;2023-05-01T07:12:23;6.00;;;4.50;;
35056;SDS011;21241;51.828;19.574;2023-05-01T07:14:51;6.10;;;5.00;;
35056;SDS011;21241;51.828;19.574;2023-05-01T07:17:18;7.20;;;5.30;;
35056;SDS011;21241;51.828;19.574;2023-05-01T07:19:46;7.40;;;5.90;;
35056;SDS011;21241;51.828;19.574;2023-05-01T07:22:14;5.90;;;5.00;;
35056;SDS011;21241;51.828;19.574;2023-05-01T07:24:42;5.20;;;4.70;;
35056;SDS011;21241;51.828;19.574;2023-05-01T07:27:09;5.20;;;4.60;;
35056;SDS011;21241;51.828;19.574;2023-05-01T07:29:37;6.30;;;4.80;;
35056;SDS011;21241;51.828;19.574;2023-05-01T07:32:05;5.20;;;4.60;;
35056;SDS011;21241;51.828;19.574;2023-05-01T07:34:33;4.20;;;3.80;;
35056;SDS011;21241;51.828;19.574;2023-05-01T07:37:01;4.90;;;4.30;;
35056;SDS011;21241;51.828;19.574;2023-05-01T07:39:31;5.40;;;4.80;;
35056;SDS011;21241;51.828;19.574;2023-05-01T07:41:58;5.50;;;5.00;;
35056;SDS011;21241;51.828;19.574;2023-05-01T07:44:26;6.80;;;5.60;;
35056;SDS011;21241;51.828;19.574;2023-05-01T07:46:54;6.10;;;5.50;;
35056;SDS011;21241;51.828;19.574;2023-05-01T07:49:21;5.80;;;5.20;;
35056;SDS011;21241;51.828;19.574;2023-05-01T07:51:49;5.80;;;5.10;;
35056;SDS011;21241;51.828;19.574;2023-05-01T07:54:17;5.50;;;5.00;;
35056;SDS011;21241;51.828;19.574;2023-05-01T07:56:48;6.30;;;5.70;;
35056;SDS011;21241;51.828;19.574;2023-05-01T07:59:16;7.60;;;5.90;;
35056;SDS011;21241;51.828;19.574;2023-05-01T08:01:44;5.90;;;5.30;;
35056;SDS011;21241;51.828;19.574;2023-05-01T08:04:11;6.10;;;5.30;;
35056;SDS011;21241;51.828;19.574;2023-05-01T08:06:40;5.90;;;5.40;;
35056;SDS011;21241;51.828;19.574;2023-05-01T08:09:08;5.70;;;5.20;;
35056;SDS011;21241;51.828;19.574;2023-05-01T08:11:36;5.90;;;5.40;;
35056;SDS011;21241;51.828;19.574;2023-05-01T08:14:03;6.10;;;4.50;;
35056;SDS011;21241;51.828;19.574;2023-05-01T08:16:32;5.40;;;4.40;;
35056;SDS011;21241;51.828;19.574;2023-05-01T08:19:00;4.90;;;4.40;;
35056;SDS011;21241;51.828;19.574;2023-05-01T08:21:28;5.10;;;4.40;;
35056;SDS011;21241;51.828;19.574;2023-05-01T08:23:56;4.40;;;4.00;;
35056;SDS011;21241;51.828;19.574;2023-05-01T08:26:24;5.50;;;4.60;;
35056;SDS011;21241;51.828;19.574;2023-05-01T08:28:51;5.30;;;4.60;;
35056;SDS011;21241;51.828;19.574;2023-05-01T08:31:19;5.50;;;4.80;;
35056;SDS011;21241;51.828;19.574;2023-05-01T08:33:48;5.70;;;4.50;;
35056;SDS011;21241;51.828;19.574;2023-05-01T08:36:16;6.40;;;4.60;;
35056;SDS011;21241;51.828;19.574;2023-05-01T08:38:45;6.50;;;4.50;;
35056;SDS011;21241;51.828;19.574;2023-05-01T08:41:18;6.00;;;4.90;;
35056;SDS011;21241;51.828;19.574;2023-05-01T08:43:47;4.80;;;4.40;;
35056;SDS011;21241;51.828;19.574;2023-05-01T08:46:18;6.30;;;4.60;;
35056;SDS011;21241;51.828;19.574;2023-05-01T08:48:53;6.40;;;4.80;;
35056;SDS011;21241;51.828;19.574;2023-05-01T08:51:22;5.40;;;4.80;;
35056;SDS011;21241;51.828;19.574;2023-05-01T08:53:51;5.70;;;4.60;;
35056;SDS011;21241;51.828;19.574;2023-05-01T08:56:19;5.60;;;5.00;;
35056;SDS011;21241;51.828;19.574;2023-05-01T08:58:49;5.40;;;4.80;;
35056;SDS011;21241;51.828;19.574;2023-05-01T09:01:18;5.30;;;4.90;;
35056;SDS011;21241;51.828;19.574;2023-05-01T09:03:46;5.30;;;4.80;;
35056;SDS011;21241;51.828;19.574;2023-05-01T09:06:16;5.50;;;5.00;;
35056;SDS011;21241;51.828;19.574;2023-05-01T09:08:44;6.10;;;4.70;;
35056;SDS011;21241;51.828;19.574;2023-05-01T09:11:12;5.90;;;4.80;;
35056;SDS011;21241;51.828;19.574;2023-05-01T09:13:40;5.70;;;4.50;;
35056;SDS011;21241;51.828;19.574;2023-05-01T09:16:07;5.20;;;4.60;;
35056;SDS011;21241;51.828;19.574;2023-05-01T09:18:35;5.70;;;4.70;;
35056;SDS011;21241;51.828;19.574;2023-05-01T09:21:03;5.10;;;4.40;;
35056;SDS011;21241;51.828;19.574;2023-05-01T09:23:32;5.00;;;4.60;;
35056;SDS011;21241;51.828;19.574;2023-05-01T09:26:05;5.70;;;4.60;;
35056;SDS011;21241;51.828;19.574;2023-05-01T09:28:38;5.10;;;4.60;;
35056;SDS011;21241;51.828;19.574;2023-05-01T09:31:19;5.50;;;4.90;;
35056;SDS011;21241;51.828;19.574;2023-05-01T09:33:51;6.30;;;5.40;;
35056;SDS011;21241;51.828;19.574;2023-05-01T09:36:23;5.70;;;5.10;;
35056;SDS011;21241;51.828;19.574;2023-05-01T09:38:53;6.00;;;5.20;;
35056;SDS011;21241;51.828;19.574;2023-05-01T09:41:21;5.80;;;5.10;;
35056;SDS011;21241;51.828;19.574;2023-05-01T09:43:50;5.20;;;4.70;;
35056;SDS011;21241;51.828;19.574;2023-05-01T09:46:19;5.60;;;5.10;;
35056;SDS011;21241;51.828;19.574;2023-05-01T09:48:53;6.00;;;5.00;;
35056;SDS011;21241;51.828;19.574;2023-05-01T09:51:28;6.40;;;5.70;;
35056;SDS011;21241;51.828;19.574;2023-05-01T09:53:58;10.00;;;5.70;;
35056;SDS011;21241;51.828;19.574;2023-05-01T09:56:30;5.50;;;5.10;;
35056;SDS011;21241;51.828;19.574;2023-05-01T09:59:13;5.90;;;5.20;;
35056;SDS011;21241;51.828;19.574;2023-05-01T10:01:43;5.80;;;5.20;;
35056;SDS011;21241;51.828;19.574;2023-05-01T10:04:13;7.50;;;6.00;;
35056;SDS011;21241;51.828;19.574;2023-05-01T10:06:41;5.80;;;5.30;;
35056;SDS011;21241;51.828;19.574;2023-05-01T10:09:09;5.70;;;5.10;;
35056;SDS011;21241;51.828;19.574;2023-05-01T10:11:48;6.10;;;5.50;;
35056;SDS011;21241;51.828;19.574;2023-05-01T10:14:16;5.90;;;4.90;;
35056;SDS011;21241;51.828;19.574;2023-05-01T10:16:44;6.00;;;5.50;;
35056;SDS011;21241;51.828;19.574;2023-05-01T10:19:13;6.10;;;5.50;;
35056;SDS011;21241;51.828;19.574;2023-05-01T10:21:42;6.20;;;5.70;;
35056;SDS011;21241;51.828;19.574;2023-05-01T10:24:10;4.60;;;4.20;;
35056;SDS011;21241;51.828;19.574;2023-05-01T10:26:38;6.10;;;5.00;;
35056;SDS011;21241;51.828;19.574;2023-05-01T10:29:07;4.50;;;4.00;;
35056;SDS011;21241;51.828;19.574;2023-05-01T10:31:35;4.80;;;4.40;;
35056;SDS011;21241;51.828;19.574;2023-05-01T10:34:03;5.10;;;4.40;;
35056;SDS011;21241;51.828;19.574;2023-05-01T10:36:43;5.10;;;4.60;;
35056;SDS011;21241;51.828;19.574;2023-05-01T10:39:33;5.10;;;4.20;;
35056;SDS011;21241;51.828;19.574;2023-05-01T10:44:36;4.40;;;4.00;;
35056;SDS011;21241;51.828;19.574;2023-05-01T10:50:03;6.30;;;4.60;;
35056;SDS011;21241;51.828;19.574;2023-05-01T10:55:43;7.10;;;4.70;;
35056;SDS011;21241;51.828;19.574;2023-05-01T10:58:13;5.40;;;4.30;;
35056;SDS011;21241;51.828;19.574;2023-05-01T11:01:34;4.70;;;4.30;;
35056;SDS011;21241;51.828;19.574;2023-05-01T11:09:40;8.70;;;5.10;;
35056;SDS011;21241;51.828;19.574;2023-05-01T11:12:10;4.70;;;4.30;;
35056;SDS011;21241;51.828;19.574;2023-05-01T11:20:11;4.90;;;4.50;;
35056;SDS011;21241;51.828;19.574;2023-05-01T11:22:43;4.80;;;4.40;;
35056;SDS011;21241;51.828;19.574;2023-05-01T11:25:18;6.70;;;4.90;;
35056;SDS011;21241;51.828;19.574;2023-05-01T11:27:50;5.00;;;4.00;;
35056;SDS011;21241;51.828;19.574;2023-05-01T11:30:19;4.80;;;4.30;;
35056;SDS011;21241;51.828;19.574;2023-05-01T11:32:48;4.80;;;3.70;;
35056;SDS011;21241;51.828;19.574;2023-05-01T11:37:45;4.70;;;4.30;;
35056;SDS011;21241;51.828;19.574;2023-05-01T11:40:18;6.60;;;4.80;;
35056;SDS011;21241;51.828;19.574;2023-05-01T11:42:48;4.50;;;4.10;;
35056;SDS011;21241;51.828;19.574;2023-05-01T11:45:17;4.80;;;4.40;;
35056;SDS011;21241;51.828;19.574;2023-05-01T11:47:46;4.30;;;3.90;;
35056;SDS011;21241;51.828;19.574;2023-05-01T11:50:14;4.20;;;3.90;;
35056;SDS011;21241;51.828;19.574;2023-05-01T11:52:44;4.30;;;3.90;;
35056;SDS011;21241;51.828;19.574;2023-05-01T11:55:15;4.20;;;3.60;;
35056;SDS011;21241;51.828;19.574;2023-05-01T11:57:43;4.10;;;3.60;;
35056;SDS011;21241;51.828;19.574;2023-05-01T12:00:15;5.90;;;3.60;;
35056;SDS011;21241;51.828;19.574;2023-05-01T12:03:00;3.80;;;3.30;;
35056;SDS011;21241;51.828;19.574;2023-05-01T12:05:39;6.20;;;3.70;;
35056;SDS011;21241;51.828;19.574;2023-05-01T12:08:12;4.70;;;3.60;;
35056;SDS011;21241;51.828;19.574;2023-05-01T12:10:48;5.50;;;3.40;;
35056;SDS011;21241;51.828;19.574;2023-05-01T12:13:18;4.20;;;3.80;;
35056;SDS011;21241;51.828;19.574;2023-05-01T12:15:48;4.70;;;3.60;;
35056;SDS011;21241;51.828;19.574;2023-05-01T12:18:17;5.30;;;3.60;;
35056;SDS011;21241;51.828;19.574;2023-05-01T12:20:46;4.30;;;3.60;;
35056;SDS011;21241;51.828;19.574;2023-05-01T12:23:17;4.60;;;4.20;;
35056;SDS011;21241;51.828;19.574;2023-05-01T12:25:45;3.70;;;3.00;;
35056;SDS011;21241;51.828;19.574;2023-05-01T12:28:14;4.20;;;3.80;;
35056;SDS011;21241;51.828;19.574;2023-05-01T12:30:44;4.00;;;2.90;;
35056;SDS011;21241;51.828;19.574;2023-05-01T12:33:14;4.30;;;3.30;;
35056;SDS011;21241;51.828;19.574;2023-05-01T12:35:44;5.00;;;3.40;;
35056;SDS011;21241;51.828;19.574;2023-05-01T12:38:14;4.50;;;3.50;;
35056;SDS011;21241;51.828;19.574;2023-05-01T12:43:31;3.40;;;2.70;;
35056;SDS011;21241;51.828;19.574;2023-05-01T12:46:00;3.50;;;3.10;;
35056;SDS011;21241;51.828;19.574;2023-05-01T12:48:32;3.30;;;3.00;;
35056;SDS011;21241;51.828;19.574;2023-05-01T12:51:05;4.50;;;3.10;;
35056;SDS011;21241;51.828;19.574;2023-05-01T12:53:34;5.10;;;3.00;;
35056;SDS011;21241;51.828;19.574;2023-05-01T12:56:16;3.40;;;2.90;;
35056;SDS011;21241;51.828;19.574;2023-05-01T12:58:52;3.40;;;3.10;;
35056;SDS011;21241;51.828;19.574;2023-05-01T13:01:22;4.30;;;3.20;;
35056;SDS011;21241;51.828;19.574;2023-05-01T13:03:52;5.10;;;3.00;;
35056;SDS011;21241;51.828;19.574;2023-05-01T13:06:30;3.40;;;3.10;;
35056;SDS011;21241;51.828;19.574;2023-05-01T13:09:06;4.20;;;3.40;;
35056;SDS011;21241;51.828;19.574;2023-05-01T13:11:38;3.00;;;2.70;;
35056;SDS011;21241;51.828;19.574;2023-05-01T13:14:08;3.10;;;2.80;;
35056;SDS011;21241;51.828;19.574;2023-05-01T13:16:42;3.50;;;3.20;;
35056;SDS011;21241;51.828;19.574;2023-05-01T13:19:13;3.40;;;2.80;;
35056;SDS011;21241;51.828;19.574;2023-05-01T13:21:47;3.50;;;2.50;;
35056;SDS011;21241;51.828;19.574;2023-05-01T13:24:15;3.00;;;2.80;;
35056;SDS011;21241;51.828;19.574;2023-05-01T13:26:43;3.00;;;2.70;;
35056;SDS011;21241;51.828;19.574;2023-05-01T13:29:14;3.30;;;3.00;;
35056;SDS011;21241;51.828;19.574;2023-05-01T13:31:43;3.80;;;3.10;;
35056;SDS011;21241;51.828;19.574;2023-05-01T13:34:11;3.30;;;2.90;;
35056;SDS011;21241;51.828;19.574;2023-05-01T13:36:43;3.60;;;2.80;;
35056;SDS011;21241;51.828;19.574;2023-05-01T13:39:16;3.60;;;2.60;;
35056;SDS011;21241;51.828;19.574;2023-05-01T13:41:48;3.70;;;2.80;;
35056;SDS011;21241;51.828;19.574;2023-05-01T13:44:23;4.20;;;2.80;;
35056;SDS011;21241;51.828;19.574;2023-05-01T13:46:51;5.60;;;3.20;;
35056;SDS011;21241;51.828;19.574;2023-05-01T13:49:19;4.50;;;3.00;;
35056;SDS011;21241;51.828;19.574;2023-05-01T13:51:50;3.80;;;2.80;;
35056;SDS011;21241;51.828;19.574;2023-05-01T13:54:21;3.50;;;3.20;;
35056;SDS011;21241;51.828;19.574;2023-05-01T13:56:49;3.80;;;2.70;;
35056;SDS011;21241;51.828;19.574;2023-05-01T13:59:17;3.20;;;2.90;;
35056;SDS011;21241;51.828;19.574;2023-05-01T14:01:45;3.00;;;2.50;;
35056;SDS011;21241;51.828;19.574;2023-05-01T14:04:14;2.80;;;2.60;;
35056;SDS011;21241;51.828;19.574;2023-05-01T14:06:48;3.10;;;2.50;;
35056;SDS011;21241;51.828;19.574;2023-05-01T14:09:16;2.60;;;2.30;;
35056;SDS011;21241;51.828;19.574;2023-05-01T14:11:46;4.00;;;2.90;;
35056;SDS011;21241;51.828;19.574;2023-05-01T14:14:14;5.20;;;3.00;;
35056;SDS011;21241;51.828;19.574;2023-05-01T14:16:47;3.10;;;2.80;;
35056;SDS011;21241;51.828;19.574;2023-05-01T14:19:17;3.70;;;2.70;;
35056;SDS011;21241;51.828;19.574;2023-05-01T14:21:45;3.20;;;2.60;;
35056;SDS011;21241;51.828;19.574;2023-05-01T14:24:14;3.40;;;2.70;;
35056;SDS011;21241;51.828;19.574;2023-05-01T14:26:44;6.00;;;2.90;;
35056;SDS011;21241;51.828;19.574;2023-05-01T14:29:20;3.80;;;2.60;;
35056;SDS011;21241;51.828;19.574;2023-05-01T14:31:54;3.90;;;2.80;;
35056;SDS011;21241;51.828;19.574;2023-05-01T14:34:23;2.70;;;2.50;;
35056;SDS011;21241;51.828;19.574;2023-05-01T14:36:54;3.20;;;2.80;;
35056;SDS011;21241;51.828;19.574;2023-05-01T14:39:22;3.70;;;2.60;;
35056;SDS011;21241;51.828;19.574;2023-05-01T14:41:52;3.60;;;2.60;;
35056;SDS011;21241;51.828;19.574;2023-05-01T14:44:22;7.30;;;2.70;;
35056;SDS011;21241;51.828;19.574;2023-05-01T14:46:53;2.90;;;2.40;;
35056;SDS011;21241;51.828;19.574;2023-05-01T14:49:21;2.90;;;2.50;;
35056;SDS011;21241;51.828;19.574;2023-05-01T14:51:52;3.50;;;2.50;;
35056;SDS011;21241;51.828;19.574;2023-05-01T14:54:20;3.90;;;2.40;;
35056;SDS011;21241;51.828;19.574;2023-05-01T14:56:48;3.00;;;2.70;;
35056;SDS011;21241;51.828;19.574;2023-05-01T14:59:16;3.60;;;2.70;;
35056;SDS011;21241;51.828;19.574;2023-05-01T15:01:43;3.10;;;2.50;;
35056;SDS011;21241;51.828;19.574;2023-05-01T15:04:11;4.00;;;2.60;;
35056;SDS011;21241;51.828;19.574;2023-05-01T15:06:40;3.30;;;2.60;;
35056;SDS011;21241;51.828;19.574;2023-05-01T15:09:08;3.70;;;2.60;;
35056;SDS011;21241;51.828;19.574;2023-05-01T15:11:36;3.50;;;2.40;;
35056;SDS011;21241;51.828;19.574;2023-05-01T15:14:04;2.90;;;2.50;;
35056;SDS011;21241;51.828;19.574;2023-05-01T15:16:32;3.20;;;2.70;;
35056;SDS011;21241;51.828;19.574;2023-05-01T15:19:00;3.90;;;2.90;;
35056;SDS011;21241;51.828;19.574;2023-05-01T15:21:28;3.80;;;2.90;;